Time;durP1;ratioP1;P1;durP2;ratioP2;P2;SDS_P1;SDS_P2;PMS_P1;PMS_P2;Temp;Humidity;BMP_temperature;BMP_pressure;BME280_temperature;BME280_humidity;BME280_pressure;Samples;Min_cycle;Max_cycle;Signal;HPM_P1;HPM_P2
2024/04/15 00:00:41;;;;;;;0.10;0.10;;;11.90;72.50;;;;;;5494855;26;20000;-77
2024/04/15 00:03:07;;;;;;;0.00;0.00;;;12.00;72.90;;;;;;5494589;26;20002;-77
2024/04/15 00:05:32;;;;;;;0.00;0.00;;;11.90;73.20;;;;;;5495613;26;20002;-77
2024/04/15 00:07:58;;;;;;;0.00;0.00;;;11.90;72.90;;;;;;5494329;26;20500;-77
2024/04/15 00:10:24;;;;;;;0.00;0.00;;;11.80;73.20;;;;;;5492604;26;20009;-77
2024/04/15 00:12:51;;;;;;;0.05;0.05;;;11.80;73.20;;;;;;5528998;26;20335;-77
2024/04/15 00:15:17;;;;;;;0.00;0.00;;;11.70;73.60;;;;;;5532254;26;19993;-77
2024/04/15 00:17:42;;;;;;;0.00;0.00;;;11.70;73.50;;;;;;5507601;26;20070;-77
2024/04/15 00:20:08;;;;;;;0.00;0.00;;;11.60;73.70;;;;;;5524020;26;20917;-77
2024/04/15 00:22:34;;;;;;;0.00;0.00;;;11.60;74.10;;;;;;5531612;26;20002;-77
2024/04/15 00:24:59;;;;;;;0.10;0.10;;;11.50;74.50;;;;;;5532495;26;20002;-77
2024/04/15 00:27:25;;;;;;;0.00;0.00;;;11.30;74.40;;;;;;5505114;26;19994;-77
2024/04/15 00:29:51;;;;;;;0.05;0.05;;;11.30;74.70;;;;;;5523553;26;19998;-77
2024/04/15 00:32:16;;;;;;;0.10;0.10;;;11.30;74.70;;;;;;5494317;26;20005;-77
2024/04/15 00:34:42;;;;;;;0.08;0.08;;;11.40;74.40;;;;;;5492961;26;20077;-77
2024/04/15 00:37:07;;;;;;;0.00;0.00;;;11.30;74.60;;;;;;5494739;26;19996;-77
2024/04/15 00:39:33;;;;;;;0.10;0.10;;;11.30;74.40;;;;;;5491347;26;20517;-77
2024/04/15 00:41:59;;;;;;;0.10;0.10;;;11.30;74.20;;;;;;5492865;26;20017;-77
2024/04/15 00:44:34;;;;;;;0.00;0.00;;;11.20;74.90;;;;;;5494930;26;19998;-77
2024/04/15 00:47:02;;;;;;;0.10;0.10;;;11.20;75.20;;;;;;5493754;26;20440;-77
2024/04/15 00:49:32;;;;;;;0.00;0.00;;;11.20;74.50;;;;;;5510942;26;19998;-77
2024/04/15 00:51:58;;;;;;;0.10;0.10;;;11.20;74.10;;;;;;5484972;26;20010;-77
2024/04/15 00:54:25;;;;;;;0.10;0.10;;;11.20;74.30;;;;;;5493931;26;20042;-77
2024/04/15 00:56:51;;;;;;;0.03;0.03;;;11.20;74.10;;;;;;5492624;26;20017;-77
2024/04/15 00:59:18;;;;;;;0.00;0.00;;;11.20;74.40;;;;;;5493488;26;19997;-76
2024/04/15 01:01:44;;;;;;;0.00;0.00;;;11.20;74.30;;;;;;5494478;26;20356;-76
2024/04/15 01:04:09;;;;;;;0.03;0.03;;;11.10;74.50;;;;;;5494533;26;19991;-77
2024/04/15 01:06:35;;;;;;;0.10;0.10;;;11.10;74.50;;;;;;5492377;26;20017;-77
2024/04/15 01:09:01;;;;;;;0.10;0.10;;;11.10;74.40;;;;;;5523658;26;19994;-77
2024/04/15 01:11:26;;;;;;;0.10;0.10;;;11.10;74.60;;;;;;5481195;26;20014;-77
2024/04/15 01:13:52;;;;;;;0.00;0.00;;;11.10;74.40;;;;;;5494777;26;20007;-77
2024/04/15 01:16:18;;;;;;;0.10;0.10;;;11.10;74.30;;;;;;5494009;26;20005;-77
2024/04/15 01:18:43;;;;;;;0.00;0.00;;;11.10;74.50;;;;;;5500401;26;19997;-77
2024/04/15 01:21:09;;;;;;;0.00;0.00;;;11.00;74.50;;;;;;5512347;26;20639;-77
2024/04/15 01:23:44;;;;;;;0.00;0.00;;;11.00;74.50;;;;;;5493877;26;20360;-77
2024/04/15 01:26:10;;;;;;;0.10;0.10;;;11.00;74.30;;;;;;5492758;26;20447;-77
2024/04/15 01:28:36;;;;;;;0.10;0.10;;;11.00;74.50;;;;;;5492514;26;20022;-77
2024/04/15 01:31:01;;;;;;;0.00;0.00;;;11.00;74.30;;;;;;5484659;26;19998;-77
2024/04/15 01:33:27;;;;;;;0.10;0.10;;;11.00;74.60;;;;;;5476773;26;20012;-77
2024/04/15 01:35:52;;;;;;;0.10;0.10;;;11.00;74.40;;;;;;5482938;26;19995;-77
2024/04/15 01:38:18;;;;;;;0.00;0.00;;;10.90;74.60;;;;;;5490157;26;20062;-77
2024/04/15 01:40:44;;;;;;;0.10;0.10;;;10.90;74.70;;;;;;5493580;26;19998;-77
2024/04/15 01:43:09;;;;;;;0.10;0.10;;;10.90;74.70;;;;;;5493128;26;20055;-77
2024/04/15 01:45:35;;;;;;;0.10;0.10;;;10.90;74.70;;;;;;5494283;26;20067;-77
2024/04/15 01:48:01;;;;;;;0.10;0.10;;;10.90;74.60;;;;;;5492715;26;19994;-77
2024/04/15 01:50:27;;;;;;;0.10;0.10;;;10.80;74.70;;;;;;5491655;26;20329;-77
2024/04/15 01:52:53;;;;;;;0.10;0.10;;;10.80;75.00;;;;;;5490575;26;20002;-77
2024/04/15 01:55:19;;;;;;;0.10;0.10;;;10.80;75.10;;;;;;5523108;26;20012;-76
2024/04/15 01:57:44;;;;;;;0.10;0.10;;;10.70;75.10;;;;;;5493410;26;20456;-76
2024/04/15 02:00:10;;;;;;;0.10;0.10;;;10.70;75.60;;;;;;5492436;26;20348;-77
2024/04/15 02:02:36;;;;;;;0.10;0.10;;;10.70;75.50;;;;;;5493173;26;19998;-77
2024/04/15 02:05:02;;;;;;;0.10;0.10;;;10.70;75.40;;;;;;5522474;26;20020;-77
2024/04/15 02:07:27;;;;;;;0.00;0.00;;;10.70;75.40;;;;;;5493680;26;19994;-77
2024/04/15 02:09:53;;;;;;;0.10;0.10;;;10.70;75.40;;;;;;5492505;26;20006;-77
2024/04/15 02:12:19;;;;;;;0.10;0.10;;;10.60;75.40;;;;;;5491490;26;20009;-77
2024/04/15 02:14:45;;;;;;;0.10;0.10;;;10.60;75.40;;;;;;5483957;26;20006;-77
2024/04/15 02:17:10;;;;;;;0.08;0.08;;;10.60;75.40;;;;;;5484890;26;19998;-77
2024/04/15 02:19:36;;;;;;;0.10;0.10;;;10.60;75.20;;;;;;5495836;26;20000;-77
2024/04/15 02:22:02;;;;;;;0.10;0.10;;;10.50;75.60;;;;;;5507544;26;20002;-77
2024/04/15 02:24:27;;;;;;;0.00;0.00;;;10.50;75.40;;;;;;5491891;26;19994;-76
2024/04/15 02:26:54;;;;;;;0.00;0.00;;;10.40;75.60;;;;;;5510934;26;19998;-77
2024/04/15 02:29:19;;;;;;;0.10;0.10;;;10.30;75.90;;;;;;5493349;26;19994;-77
2024/04/15 02:31:45;;;;;;;0.00;0.00;;;10.30;75.70;;;;;;5492725;26;19998;-77
2024/04/15 02:34:10;;;;;;;0.10;0.10;;;10.30;75.80;;;;;;5492044;26;20070;-76
2024/04/15 02:36:36;;;;;;;0.10;0.10;;;10.30;75.70;;;;;;5490553;26;20044;-77
2024/04/15 02:39:02;;;;;;;0.10;0.10;;;10.30;75.80;;;;;;5493342;26;19990;-77
2024/04/15 02:41:27;;;;;;;0.08;0.08;;;10.30;75.80;;;;;;5492825;26;20008;-77
2024/04/15 02:43:53;;;;;;;0.10;0.10;;;10.20;75.90;;;;;;5491877;26;20013;-77
2024/04/15 02:46:18;;;;;;;0.10;0.10;;;10.20;76.10;;;;;;5492362;26;20016;-77
2024/04/15 02:48:44;;;;;;;0.00;0.00;;;10.10;76.10;;;;;;5498706;26;20000;-77
2024/04/15 02:51:10;;;;;;;0.10;0.10;;;10.10;76.10;;;;;;5527510;26;20005;-77
2024/04/15 02:53:35;;;;;;;0.10;0.10;;;10.10;76.10;;;;;;5506110;26;20436;-77
2024/04/15 02:56:01;;;;;;;0.10;0.10;;;10.10;76.00;;;;;;5491313;26;20010;-77
2024/04/15 02:58:27;;;;;;;0.00;0.00;;;10.10;75.90;;;;;;5492958;26;20066;-77
2024/04/15 03:00:52;;;;;;;0.10;0.10;;;10.10;75.80;;;;;;5491470;25;20009;-76
2024/04/15 03:03:18;;;;;;;0.10;0.10;;;10.10;75.80;;;;;;5492731;26;19995;-77
2024/04/15 03:05:45;;;;;;;0.10;0.10;;;10.00;75.80;;;;;;5492542;26;20013;-77
2024/04/15 03:08:11;;;;;;;0.00;0.00;;;10.00;76.10;;;;;;5518944;26;20073;-77
2024/04/15 03:10:36;;;;;;;0.00;0.00;;;9.90;76.10;;;;;;5491214;26;19998;-77
2024/04/15 03:13:02;;;;;;;0.00;0.00;;;9.90;76.20;;;;;;5492861;26;19991;-77
2024/04/15 03:15:28;;;;;;;0.10;0.10;;;9.80;76.40;;;;;;5492165;26;20043;-77
2024/04/15 03:17:53;;;;;;;0.10;0.10;;;9.80;76.50;;;;;;5489470;26;20554;-77
2024/04/15 03:20:19;;;;;;;0.10;0.10;;;9.70;76.50;;;;;;5523487;26;20316;-77
2024/04/15 03:22:51;;;;;;;0.10;0.10;;;9.70;76.50;;;;;;5528884;26;20458;-77
2024/04/15 03:25:18;;;;;;;0.10;0.10;;;9.70;76.80;;;;;;5529153;26;20077;-77
2024/04/15 03:27:44;;;;;;;0.00;0.00;;;9.60;76.70;;;;;;5495331;26;20018;-77
2024/04/15 03:30:10;;;;;;;0.10;0.10;;;9.50;77.20;;;;;;5495039;26;19998;-77
2024/04/15 03:32:36;;;;;;;0.00;0.00;;;9.50;77.10;;;;;;5494177;26;20404;-77
2024/04/15 03:35:01;;;;;;;0.00;0.00;;;9.50;77.10;;;;;;5494515;26;20052;-77
2024/04/15 03:37:27;;;;;;;0.03;0.03;;;9.50;77.00;;;;;;5503502;26;20002;-77
2024/04/15 03:39:53;;;;;;;0.10;0.10;;;9.50;76.90;;;;;;5495665;26;20046;-77
2024/04/15 03:42:18;;;;;;;0.10;0.10;;;9.50;77.00;;;;;;5495971;26;19998;-76
2024/04/15 03:44:44;;;;;;;0.10;0.10;;;9.40;76.90;;;;;;5494097;26;20013;-77
2024/04/15 03:47:10;;;;;;;0.00;0.00;;;9.40;77.30;;;;;;5463092;26;20433;-77
2024/04/15 03:49:35;;;;;;;0.00;0.00;;;9.40;77.30;;;;;;5515341;26;19993;-77
2024/04/15 03:52:01;;;;;;;0.00;0.00;;;9.50;77.20;;;;;;5532020;26;19993;-77
2024/04/15 03:54:26;;;;;;;0.00;0.00;;;9.50;77.00;;;;;;5496217;26;20002;-77
2024/04/15 03:56:52;;;;;;;0.00;0.00;;;9.50;76.80;;;;;;5490925;26;20005;-77
2024/04/15 03:59:18;;;;;;;0.00;0.00;;;9.50;76.80;;;;;;5495623;26;19994;-77
2024/04/15 04:01:43;;;;;;;0.10;0.10;;;9.50;77.00;;;;;;5494791;26;20002;-77
2024/04/15 04:04:10;;;;;;;0.00;0.00;;;9.40;76.80;;;;;;5524252;26;19994;-77
2024/04/15 04:06:35;;;;;;;0.10;0.10;;;9.50;76.90;;;;;;5494308;26;20452;-77
2024/04/15 04:09:01;;;;;;;0.10;0.10;;;9.50;76.80;;;;;;5495684;26;19998;-76
2024/04/15 04:11:27;;;;;;;0.10;0.10;;;9.50;76.60;;;;;;5486892;26;20437;-77
2024/04/15 04:13:52;;;;;;;0.10;0.10;;;9.40;76.90;;;;;;5476408;26;20017;-77
2024/04/15 04:16:18;;;;;;;0.10;0.10;;;9.40;76.80;;;;;;5457024;26;20007;-77
2024/04/15 04:18:45;;;;;;;0.10;0.10;;;9.30;77.00;;;;;;5457238;26;20075;-77
2024/04/15 04:21:11;;;;;;;0.05;0.05;;;9.30;77.40;;;;;;5456272;26;20002;-77
2024/04/15 04:23:37;;;;;;;0.00;0.00;;;9.30;77.30;;;;;;5482188;26;20009;-77
2024/04/15 04:26:03;;;;;;;0.00;0.00;;;9.30;77.30;;;;;;5493284;26;20835;-77
2024/04/15 04:28:29;;;;;;;0.10;0.10;;;9.30;77.30;;;;;;5495422;26;20001;-77
2024/04/15 04:30:59;;;;;;;0.00;0.00;;;9.30;77.30;;;;;;5492825;26;19997;-77
2024/04/15 04:33:25;;;;;;;0.10;0.10;;;9.20;77.40;;;;;;5493739;26;20055;-77
2024/04/15 04:35:51;;;;;;;0.05;0.05;;;9.20;77.50;;;;;;5494554;26;20010;-77
2024/04/15 04:38:16;;;;;;;0.03;0.03;;;9.20;77.60;;;;;;5492760;26;19998;-77
2024/04/15 04:40:42;;;;;;;0.10;0.10;;;9.20;77.40;;;;;;5492443;26;20009;-76
2024/04/15 04:43:07;;;;;;;0.10;0.10;;;9.30;77.20;;;;;;5493309;26;19998;-77
2024/04/15 04:45:33;;;;;;;0.10;0.10;;;9.30;77.20;;;;;;5494689;26;20348;-77
2024/04/15 04:47:59;;;;;;;0.10;0.10;;;9.30;77.20;;;;;;5491271;26;20014;-76
2024/04/15 04:50:24;;;;;;;0.10;0.10;;;9.20;77.10;;;;;;5521253;26;20018;-76
2024/04/15 04:52:50;;;;;;;0.10;0.10;;;9.20;77.30;;;;;;5486989;26;20072;-80
2024/04/15 04:55:15;;;;;;;0.10;0.10;;;9.20;77.20;;;;;;5494646;25;20006;-80
2024/04/15 04:57:41;;;;;;;0.10;0.10;;;9.20;77.30;;;;;;5491962;26;20013;-79
2024/04/15 05:00:07;;;;;;;0.00;0.00;;;9.20;77.30;;;;;;5492373;26;20446;-78
2024/04/15 05:02:33;;;;;;;0.10;0.10;;;9.20;77.60;;;;;;5492669;26;19997;-78
2024/04/15 05:04:59;;;;;;;0.10;0.10;;;9.20;77.60;;;;;;5493365;26;20009;-77
2024/04/15 05:07:24;;;;;;;0.10;0.10;;;9.20;77.50;;;;;;5494370;26;20047;-79
2024/04/15 05:09:50;;;;;;;0.10;0.10;;;9.20;77.60;;;;;;5494458;26;20043;-79
2024/04/15 05:12:16;;;;;;;0.10;0.10;;;9.20;77.80;;;;;;5510140;26;20002;-78
2024/04/15 05:14:41;;;;;;;0.00;0.00;;;9.20;78.00;;;;;;5494061;26;20005;-78
2024/04/15 05:17:09;;;;;;;0.10;0.10;;;9.10;78.10;;;;;;5493775;26;20124;-81
2024/04/15 05:19:34;;;;;;;0.10;0.10;;;9.20;78.00;;;;;;5484669;26;19999;-80
2024/04/15 05:22:00;;;;;;;0.10;0.10;;;9.10;78.00;;;;;;5491922;26;19998;-80
2024/04/15 05:24:25;;;;;;;0.10;0.10;;;9.10;78.10;;;;;;5495009;26;20005;-79
2024/04/15 05:26:54;;;;;;;0.10;0.10;;;9.20;78.30;;;;;;5491741;26;19998;-84
2024/04/15 05:33:25;;;;;;;0.10;0.10;;;9.20;78.10;;;;;;5487821;26;20042;-81
2024/04/15 05:36:31;;;;;;;0.10;0.10;;;9.20;78.20;;;;;;5457090;26;20010;-82
2024/04/15 05:38:57;;;;;;;0.10;0.10;;;9.20;78.00;;;;;;5485779;26;19999;-82
2024/04/15 05:41:23;;;;;;;0.10;0.10;;;9.30;77.90;;;;;;5481675;26;20002;-78
2024/04/15 05:43:48;;;;;;;0.10;0.10;;;9.30;77.70;;;;;;5485605;26;20012;-78
2024/04/15 05:46:14;;;;;;;0.00;0.00;;;9.30;77.90;;;;;;5490615;26;20002;-79
2024/04/15 05:48:40;;;;;;;0.10;0.10;;;9.30;77.80;;;;;;5491723;26;20013;-79
2024/04/15 05:51:05;;;;;;;0.10;0.10;;;9.30;78.10;;;;;;5488587;26;19998;-78
2024/04/15 05:53:31;;;;;;;0.05;0.05;;;9.20;78.30;;;;;;5492151;26;20021;-78
2024/04/15 05:55:57;;;;;;;0.10;0.10;;;9.30;78.20;;;;;;5492933;26;20368;-78
2024/04/15 05:58:22;;;;;;;0.10;0.10;;;9.20;78.40;;;;;;5492932;25;20006;-78
2024/04/15 06:00:48;;;;;;;0.10;0.10;;;9.20;78.80;;;;;;5490742;26;20333;-78
2024/04/15 06:03:14;;;;;;;0.10;0.10;;;9.20;79.20;;;;;;5491109;26;20013;-77
2024/04/15 06:05:39;;;;;;;0.00;0.00;;;9.20;79.00;;;;;;5492523;26;20580;-78
2024/04/15 06:08:06;;;;;;;0.10;0.10;;;9.20;79.30;;;;;;5493436;26;20012;-79
2024/04/15 06:10:31;;;;;;;0.00;0.00;;;9.20;79.60;;;;;;5491037;26;20072;-77
2024/04/15 06:12:57;;;;;;;0.10;0.10;;;9.20;79.80;;;;;;5492905;26;20075;-77
2024/04/15 06:15:23;;;;;;;0.10;0.10;;;9.20;79.60;;;;;;5488980;26;20002;-77
2024/04/15 06:17:48;;;;;;;0.10;0.10;;;9.30;79.50;;;;;;5493466;26;20006;-77
2024/04/15 06:20:14;;;;;;;0.10;0.10;;;9.30;79.60;;;;;;5523235;26;20077;-78
2024/04/15 06:22:40;;;;;;;0.10;0.10;;;9.40;79.50;;;;;;5530452;26;20008;-76
2024/04/15 06:25:05;;;;;;;0.03;0.03;;;9.50;79.70;;;;;;5480858;26;20089;-77
2024/04/15 06:27:31;;;;;;;0.10;0.10;;;9.40;79.70;;;;;;5493672;26;20039;-77
2024/04/15 06:29:57;;;;;;;0.10;0.10;;;9.40;79.70;;;;;;5489896;26;19998;-78
2024/04/15 06:32:22;;;;;;;0.10;0.10;;;9.50;79.70;;;;;;5522323;26;20448;-77
2024/04/15 06:34:48;;;;;;;0.10;0.10;;;9.50;80.00;;;;;;5493184;26;19998;-77
2024/04/15 06:37:13;;;;;;;0.10;0.10;;;9.60;79.60;;;;;;5493498;26;20006;-77
2024/04/15 06:39:39;;;;;;;0.17;0.17;;;9.60;79.50;;;;;;5490692;26;19994;-77
2024/04/15 06:42:05;;;;;;;0.10;0.10;;;9.80;79.40;;;;;;5493431;26;20005;-78
2024/04/15 06:44:35;;;;;;;0.10;0.10;;;9.90;79.20;;;;;;5492974;26;20480;-78
2024/04/15 06:47:00;;;;;;;0.10;0.10;;;10.00;78.60;;;;;;5493192;26;19998;-78
2024/04/15 06:49:26;;;;;;;0.10;0.10;;;9.90;78.70;;;;;;5484893;26;20030;-78
2024/04/15 06:51:52;;;;;;;0.10;0.10;;;9.90;78.80;;;;;;5491180;26;20024;-78
2024/04/15 06:54:17;;;;;;;0.10;0.10;;;10.10;78.50;;;;;;5492926;26;19994;-78
2024/04/15 06:56:43;;;;;;;0.10;0.10;;;10.10;79.20;;;;;;5484855;26;20521;-78
2024/04/15 06:59:08;;;;;;;0.10;0.10;;;10.10;79.00;;;;;;5491285;26;20074;-78
2024/04/15 07:01:34;;;;;;;0.10;0.10;;;10.00;79.30;;;;;;5472449;26;20008;-79
2024/04/15 07:04:00;;;;;;;0.10;0.10;;;10.10;78.80;;;;;;5479273;26;20006;-77
2024/04/15 07:06:25;;;;;;;0.10;0.10;;;10.30;78.90;;;;;;5522309;26;20331;-77
2024/04/15 07:08:52;;;;;;;0.10;0.10;;;10.40;78.40;;;;;;5527720;26;20428;-77
2024/04/15 07:11:17;;;;;;;0.10;0.10;;;10.50;78.30;;;;;;5520054;26;20336;-78
2024/04/15 07:13:43;;;;;;;0.10;0.10;;;10.70;77.90;;;;;;5528877;26;20005;-78
2024/04/15 07:16:09;;;;;;;0.10;0.10;;;10.70;77.70;;;;;;5479559;26;20076;-77
2024/04/15 07:18:35;;;;;;;0.10;0.10;;;11.10;77.20;;;;;;5465234;26;20045;-78
2024/04/15 07:21:01;;;;;;;0.10;0.10;;;11.70;75.90;;;;;;5509186;26;19998;-78
2024/04/15 07:23:27;;;;;;;0.10;0.10;;;12.10;74.80;;;;;;5486734;26;20051;-79
2024/04/15 07:25:59;;;;;;;0.10;0.10;;;12.10;73.70;;;;;;5489403;26;20010;-79
2024/04/15 07:28:25;;;;;;;0.10;0.10;;;12.30;73.80;;;;;;5492582;26;20010;-79
2024/04/15 07:30:59;;;;;;;0.20;0.20;;;12.20;73.50;;;;;;5482974;26;19995;-79
2024/04/15 07:33:25;;;;;;;0.30;0.30;;;12.50;73.00;;;;;;5490682;26;20089;-79
2024/04/15 07:35:56;;;;;;;0.10;0.10;;;13.70;70.00;;;;;;5492386;26;20071;-79
2024/04/15 07:38:22;;;;;;;0.10;0.10;;;14.00;68.10;;;;;;5490689;25;20046;-80
2024/04/15 07:40:48;;;;;;;0.40;0.40;;;15.10;66.20;;;;;;5491930;26;20015;-79
2024/04/15 07:43:14;;;;;;;0.50;0.50;;;16.30;64.00;;;;;;5520707;26;19998;-80
2024/04/15 07:45:39;;;;;;;0.50;0.50;;;19.00;56.40;;;;;;5491219;26;20002;-78
2024/04/15 07:48:06;;;;;;;0.50;0.50;;;21.20;51.20;;;;;;5491830;26;20413;-78
2024/04/15 07:50:32;;;;;;;0.95;0.73;;;22.60;44.90;;;;;;5526757;26;20070;-79
2024/04/15 07:52:58;;;;;;;0.57;0.57;;;23.30;42.60;;;;;;5491604;26;20005;-79
2024/04/15 07:55:24;;;;;;;0.50;0.50;;;23.80;41.40;;;;;;5482811;26;20013;-79
2024/04/15 07:57:50;;;;;;;0.45;0.45;;;24.50;40.60;;;;;;5455717;26;19998;-79
2024/04/15 08:00:15;;;;;;;0.20;0.20;;;24.10;38.50;;;;;;5456964;26;19995;-81
2024/04/15 08:02:41;;;;;;;0.10;0.10;;;23.70;41.20;;;;;;5490275;26;19998;-78
2024/04/15 08:05:07;;;;;;;0.10;0.10;;;22.00;43.30;;;;;;5489600;26;20285;-80
2024/04/15 08:07:32;;;;;;;0.00;0.00;;;20.30;46.40;;;;;;5491323;26;20006;-80
2024/04/15 08:09:58;;;;;;;0.10;0.10;;;19.20;49.30;;;;;;5491434;26;20336;-81
2024/04/15 08:12:24;;;;;;;0.10;0.10;;;18.10;51.70;;;;;;5490208;26;20017;-80
2024/04/15 08:14:50;;;;;;;0.10;0.10;;;17.60;53.30;;;;;;5494082;26;20002;-80
2024/04/15 08:17:15;;;;;;;0.10;0.10;;;17.00;55.80;;;;;;5494812;26;20013;-80
2024/04/15 08:19:41;;;;;;;0.10;0.10;;;16.80;57.10;;;;;;5485488;26;20003;-80
2024/04/15 08:22:07;;;;;;;0.20;0.20;;;16.60;57.50;;;;;;5472502;26;20711;-80
2024/04/15 08:24:32;;;;;;;0.20;0.20;;;16.50;57.40;;;;;;5463782;26;19994;-80
2024/04/15 08:26:58;;;;;;;0.35;0.35;;;17.10;56.60;;;;;;5458948;26;20010;-80
2024/04/15 08:29:24;;;;;;;0.30;0.30;;;18.00;54.30;;;;;;5479864;26;20005;-81
2024/04/15 08:31:49;;;;;;;0.20;0.20;;;19.30;51.90;;;;;;5489232;26;20074;-81
2024/04/15 08:34:15;;;;;;;0.70;0.70;;;20.20;48.90;;;;;;5494012;26;19999;-79
2024/04/15 08:36:41;;;;;;;0.10;0.10;;;21.00;48.40;;;;;;5476088;26;20013;-79
2024/04/15 08:39:06;;;;;;;0.20;0.20;;;20.60;47.70;;;;;;5456499;26;20014;-79
2024/04/15 08:41:44;;;;;;;0.43;0.43;;;20.90;47.90;;;;;;5468663;26;20375;-79
2024/04/15 08:44:17;;;;;;;0.70;0.70;;;21.60;45.30;;;;;;5494935;26;20020;-80
2024/04/15 08:46:47;;;;;;;0.20;0.20;;;22.40;44.90;;;;;;5476893;26;20010;-80
2024/04/15 08:49:13;;;;;;;0.10;0.10;;;21.60;45.10;;;;;;5482049;26;20009;-79
2024/04/15 08:51:40;;;;;;;0.10;0.10;;;20.40;47.20;;;;;;5479125;26;20083;-79
2024/04/15 08:54:05;;;;;;;0.00;0.00;;;20.20;47.60;;;;;;5486577;26;20059;-80
2024/04/15 08:56:33;;;;;;;0.10;0.10;;;18.80;50.60;;;;;;5480467;26;20007;-79
2024/04/15 08:59:00;;;;;;;0.10;0.10;;;17.90;52.70;;;;;;5457986;26;20453;-80
2024/04/15 09:01:26;;;;;;;0.00;0.00;;;18.40;52.60;;;;;;5479475;26;20005;-79
2024/04/15 09:03:52;;;;;;;0.00;0.00;;;17.90;53.30;;;;;;5492641;26;20013;-79
2024/04/15 09:06:19;;;;;;;0.00;0.00;;;17.30;54.70;;;;;;5492950;26;20002;-78
2024/04/15 09:08:45;;;;;;;0.00;0.00;;;17.20;55.80;;;;;;5499535;26;20476;-79
2024/04/15 09:11:13;;;;;;;0.00;0.00;;;16.90;56.50;;;;;;5495384;26;20337;-79
2024/04/15 09:13:38;;;;;;;0.00;0.00;;;16.60;57.20;;;;;;5501878;25;20030;-79
2024/04/15 09:16:05;;;;;;;0.10;0.10;;;16.50;57.80;;;;;;5471342;26;20084;-80
2024/04/15 09:18:31;;;;;;;0.00;0.00;;;16.40;58.50;;;;;;5481506;26;20002;-78
2024/04/15 09:20:57;;;;;;;0.00;0.00;;;16.10;58.30;;;;;;5481207;26;21741;-78
2024/04/15 09:23:23;;;;;;;0.00;0.00;;;15.80;59.70;;;;;;5475269;26;20017;-80
2024/04/15 09:25:49;;;;;;;0.00;0.00;;;15.70;60.20;;;;;;5474172;26;20022;-79
2024/04/15 09:28:17;;;;;;;0.00;0.00;;;15.60;61.00;;;;;;5471058;26;20455;-80
2024/04/15 09:30:44;;;;;;;0.00;0.00;;;15.50;61.70;;;;;;5481005;26;20002;-79
2024/04/15 09:33:12;;;;;;;0.00;0.00;;;15.40;62.30;;;;;;5475809;26;19999;-79
2024/04/15 09:35:39;;;;;;;0.10;0.10;;;15.20;64.70;;;;;;5476424;26;20004;-79
2024/04/15 09:38:09;;;;;;;0.10;0.10;;;15.20;65.20;;;;;;5474165;26;20013;-79
2024/04/15 09:40:36;;;;;;;0.10;0.10;;;15.20;65.70;;;;;;5479175;26;20465;-79
2024/04/15 09:43:03;;;;;;;0.10;0.10;;;15.40;64.30;;;;;;5477671;26;20002;-79
2024/04/15 09:45:29;;;;;;;0.10;0.10;;;15.50;63.40;;;;;;5474900;26;20395;-79
2024/04/15 09:47:58;;;;;;;0.10;0.10;;;15.40;63.40;;;;;;5473687;26;20009;-80
2024/04/15 09:50:27;;;;;;;0.10;0.10;;;15.60;63.50;;;;;;5474752;26;20374;-80
2024/04/15 09:53:05;;;;;;;0.08;0.08;;;15.70;62.80;;;;;;5475637;26;19998;-81
2024/04/15 09:55:35;;;;;;;0.10;0.10;;;15.70;62.90;;;;;;5465172;26;20003;-81
2024/04/15 09:58:04;;;;;;;0.10;0.10;;;15.80;62.60;;;;;;5476402;26;20010;-80
2024/04/15 10:00:31;;;;;;;0.10;0.10;;;15.80;63.10;;;;;;5485258;26;20442;-80
2024/04/15 10:03:16;;;;;;;0.10;0.10;;;15.90;62.80;;;;;;5457737;26;20069;-79
2024/04/15 10:05:45;;;;;;;0.10;0.10;;;16.00;62.60;;;;;;5490297;26;20006;-80
2024/04/15 10:08:13;;;;;;;0.10;0.10;;;16.20;62.50;;;;;;5491882;26;19998;-76
2024/04/15 10:10:41;;;;;;;0.20;0.20;;;16.50;60.60;;;;;;5495452;25;20014;-81
2024/04/15 10:13:13;;;;;;;0.10;0.10;;;16.90;59.80;;;;;;5485432;25;20073;-83
2024/04/15 10:15:39;;;;;;;0.80;0.80;;;17.30;58.30;;;;;;5489301;25;20009;-80
2024/04/15 10:18:12;;;;;;;0.80;0.80;;;18.30;57.70;;;;;;5476049;26;20851;-80
2024/04/15 10:20:48;;;;;;;0.40;0.40;;;18.80;55.50;;;;;;5476937;26;20011;-79
2024/04/15 10:23:19;;;;;;;0.20;0.20;;;18.80;54.60;;;;;;5468374;26;19999;-79
2024/04/15 10:25:44;;;;;;;0.10;0.10;;;18.80;54.80;;;;;;5485172;26;20012;-79
2024/04/15 10:28:14;;;;;;;0.10;0.10;;;18.70;54.90;;;;;;5479745;26;19998;-78
2024/04/15 10:30:41;;;;;;;0.10;0.10;;;18.40;56.10;;;;;;5477704;26;19995;-79
2024/04/15 10:33:13;;;;;;;0.10;0.10;;;18.20;55.50;;;;;;5471597;26;19998;-80
2024/04/15 10:35:40;;;;;;;0.10;0.10;;;18.50;56.20;;;;;;5472261;26;20027;-80
2024/04/15 10:38:07;;;;;;;0.10;0.10;;;18.70;55.50;;;;;;5466503;26;20079;-81
2024/04/15 10:41:20;;;;;;;0.00;0.00;;;18.40;55.40;;;;;;5483230;26;20361;-81
2024/04/15 10:44:18;;;;;;;0.00;0.00;;;17.90;56.00;;;;;;5451030;26;20042;-84
2024/04/15 10:46:46;;;;;;;0.10;0.10;;;17.50;56.30;;;;;;5492017;26;20000;-80
2024/04/15 10:49:13;;;;;;;0.00;0.00;;;17.20;57.10;;;;;;5483848;26;20355;-81
2024/04/15 10:51:38;;;;;;;0.00;0.00;;;16.90;57.30;;;;;;5491567;26;20002;-82
2024/04/15 10:54:05;;;;;;;0.00;0.00;;;16.80;57.80;;;;;;5461470;26;20473;-83
2024/04/15 10:56:31;;;;;;;0.10;0.10;;;16.50;58.20;;;;;;5475868;26;20021;-83
2024/04/15 10:59:05;;;;;;;0.10;0.10;;;16.40;59.20;;;;;;5493310;26;19998;-83
2024/04/15 11:01:31;;;;;;;0.00;0.00;;;16.10;59.90;;;;;;5491360;26;20440;-82
2024/04/15 11:03:57;;;;;;;0.00;0.00;;;16.10;60.60;;;;;;5493067;26;20104;-82
2024/04/15 11:06:23;;;;;;;0.10;0.10;;;15.80;63.50;;;;;;5490742;26;20032;-80
2024/04/15 11:08:48;;;;;;;0.10;0.10;;;15.90;65.80;;;;;;5491260;26;20017;-77
2024/04/15 11:11:23;;;;;;;0.10;0.10;;;16.00;66.00;;;;;;5501440;26;19994;-89
2024/04/15 11:13:49;;;;;;;0.10;0.10;;;16.20;64.60;;;;;;5495895;26;20318;-76
2024/04/15 11:16:17;;;;;;;0.10;0.10;;;16.40;64.70;;;;;;5518805;26;20016;-78
2024/04/15 11:18:43;;;;;;;0.10;0.10;;;16.60;63.80;;;;;;5497313;26;20016;-77
2024/04/15 11:21:08;;;;;;;0.10;0.10;;;16.90;62.10;;;;;;5528940;26;19997;-76
2024/04/15 11:23:35;;;;;;;0.10;0.10;;;17.30;62.10;;;;;;5490133;26;19998;-76
2024/04/15 11:26:02;;;;;;;0.10;0.10;;;17.60;60.60;;;;;;5492508;26;20364;-77
2024/04/15 11:28:29;;;;;;;0.10;0.10;;;17.80;59.40;;;;;;5483806;26;20039;-78
2024/04/15 11:30:56;;;;;;;0.10;0.10;;;17.70;58.80;;;;;;5474326;26;20014;-78
2024/04/15 11:33:22;;;;;;;0.10;0.10;;;17.70;58.60;;;;;;5469064;26;20467;-78
2024/04/15 11:35:50;;;;;;;0.10;0.10;;;17.70;58.50;;;;;;5474592;26;20005;-78
2024/04/15 11:38:17;;;;;;;0.10;0.10;;;17.70;58.10;;;;;;5483046;26;20013;-78
2024/04/15 11:40:43;;;;;;;0.10;0.10;;;17.50;57.80;;;;;;5471004;26;20006;-78
2024/04/15 11:43:09;;;;;;;0.10;0.10;;;17.60;58.10;;;;;;5466635;25;19999;-78
2024/04/15 11:45:35;;;;;;;0.10;0.10;;;17.60;58.60;;;;;;5472409;26;20019;-79
2024/04/15 11:48:01;;;;;;;0.10;0.10;;;17.50;58.50;;;;;;5469887;26;20067;-78
2024/04/15 11:50:26;;;;;;;0.00;0.00;;;17.50;57.30;;;;;;5461925;26;19995;-78
2024/04/15 11:52:57;;;;;;;0.05;0.05;;;17.50;57.50;;;;;;5466086;26;20007;-78
2024/04/15 11:55:23;;;;;;;0.10;0.10;;;17.30;57.90;;;;;;5482639;26;20010;-78
2024/04/15 11:57:49;;;;;;;0.00;0.00;;;17.00;57.80;;;;;;5465826;26;20011;-78
2024/04/15 12:00:15;;;;;;;0.00;0.00;;;16.80;57.60;;;;;;5466667;26;20009;-78
2024/04/15 12:02:43;;;;;;;0.10;0.10;;;16.70;59.00;;;;;;5487913;26;20001;-78
2024/04/15 12:05:11;;;;;;;0.10;0.10;;;16.60;60.10;;;;;;5479565;26;20028;-78
2024/04/15 12:07:39;;;;;;;0.10;0.10;;;16.70;59.90;;;;;;5475321;26;19999;-78
2024/04/15 12:10:06;;;;;;;0.10;0.10;;;17.00;59.60;;;;;;5478969;26;20016;-79
2024/04/15 12:12:31;;;;;;;0.10;0.10;;;17.50;59.60;;;;;;5487174;26;20118;-78
2024/04/15 12:14:57;;;;;;;0.00;0.00;;;17.60;58.50;;;;;;5479212;26;20073;-78
2024/04/15 12:17:23;;;;;;;0.10;0.10;;;17.40;58.20;;;;;;5476057;26;20345;-78
2024/04/15 12:19:48;;;;;;;0.10;0.10;;;17.50;57.90;;;;;;5487261;26;20067;-78
2024/04/15 12:22:14;;;;;;;0.10;0.10;;;17.60;57.80;;;;;;5474214;26;19999;-78
2024/04/15 12:24:39;;;;;;;0.10;0.10;;;17.60;57.30;;;;;;5474367;26;19999;-78
2024/04/15 12:27:05;;;;;;;0.20;0.20;;;17.70;56.60;;;;;;5458675;26;20078;-78
2024/04/15 12:29:31;;;;;;;0.10;0.10;;;18.10;57.50;;;;;;5472074;26;20012;-78
2024/04/15 12:31:56;;;;;;;0.10;0.10;;;18.40;56.70;;;;;;5477219;26;20013;-78
2024/04/15 12:34:22;;;;;;;0.10;0.10;;;18.90;55.90;;;;;;5473553;26;20459;-78
2024/04/15 12:36:48;;;;;;;0.10;0.10;;;18.60;54.20;;;;;;5490754;26;20016;-78
2024/04/15 12:39:14;;;;;;;0.10;0.10;;;18.40;54.60;;;;;;5478741;26;20009;-78
2024/04/15 12:41:39;;;;;;;0.10;0.10;;;18.30;55.10;;;;;;5492002;26;20009;-78
2024/04/15 12:44:05;;;;;;;0.10;0.10;;;18.30;55.50;;;;;;5493628;26;19998;-78
2024/04/15 12:46:31;;;;;;;0.20;0.20;;;18.30;54.40;;;;;;5488052;26;20010;-78
2024/04/15 12:48:56;;;;;;;0.10;0.10;;;18.70;54.00;;;;;;5485968;26;20181;-78
2024/04/15 12:51:22;;;;;;;0.10;0.10;;;19.00;53.50;;;;;;5498587;26;20006;-78